createdAt,value
2018-10-16T00:02:14.189Z,60.06
2018-10-16T00:04:42.098Z,60.71
2018-10-16T00:07:10.978Z,60.93
2018-10-16T00:12:12.414Z,60.79
2018-10-16T00:14:41.424Z,62.42
2018-10-16T00:17:10.516Z,62.57
2018-10-16T00:19:37.785Z,63.49
2018-10-16T00:22:06.113Z,62.79
2018-10-16T00:24:34.181Z,62.39
2018-10-16T00:27:02.217Z,62.43
2018-10-16T00:29:29.575Z,62.02
2018-10-16T00:31:56.814Z,61.99
2018-10-16T00:34:23.448Z,62.05
2018-10-16T00:36:51.125Z,62.92
2018-10-16T00:39:18.049Z,62.36
2018-10-16T00:41:44.693Z,61.89
2018-10-16T00:44:11.350Z,61.07
2018-10-16T00:46:38.111Z,61.44
2018-10-16T00:49:04.763Z,61.89
2018-10-16T00:51:31.473Z,62.11
2018-10-16T00:53:58.078Z,62.38
2018-10-16T00:56:25.582Z,61.87
2018-10-16T00:58:52.247Z,60.93
2018-10-16T01:01:18.897Z,61.71
2018-10-16T01:03:45.667Z,61.41
2018-10-16T01:06:12.425Z,61.39
2018-10-16T01:08:39.075Z,62.92
2018-10-16T01:11:06.767Z,63.73
2018-10-16T01:13:33.450Z,63.85
2018-10-16T01:16:00.080Z,63.25
2018-10-16T01:18:26.793Z,62.59
2018-10-16T01:23:25.266Z,64.04
2018-10-16T01:25:51.940Z,64.01
2018-10-16T01:28:18.745Z,63.34
2018-10-16T01:30:46.126Z,63.60
2018-10-16T01:33:12.683Z,63.50
2018-10-16T01:35:39.379Z,63.28
2018-10-16T01:38:05.886Z,64.70
2018-10-16T01:40:32.383Z,64.39
2018-10-16T01:42:58.864Z,63.45
2018-10-16T01:45:25.384Z,63.95
2018-10-16T01:47:51.876Z,63.87
2018-10-16T01:50:18.316Z,63.55
2018-10-16T01:55:18.310Z,64.18
2018-10-16T01:57:44.772Z,64.33
2018-10-16T02:00:11.332Z,63.96
2018-10-16T02:02:37.857Z,63.66
2018-10-16T02:05:04.739Z,63.65
2018-10-16T02:07:31.224Z,63.07
2018-10-16T02:09:57.793Z,62.36
2018-10-16T02:12:24.296Z,62.13
2018-10-16T02:14:50.993Z,63.68
2018-10-16T02:17:17.567Z,64.15
2018-10-16T02:19:44.067Z,64.01
2018-10-16T02:22:11.438Z,64.42
2018-10-16T02:24:39.257Z,65.34
2018-10-16T02:27:06.400Z,65.44
2018-10-16T02:29:32.960Z,65.23
2018-10-16T02:31:59.659Z,64.66
2018-10-16T02:34:26.238Z,64.58
2018-10-16T02:36:53.059Z,64.73
2018-10-16T02:41:51.909Z,63.85
2018-10-16T02:44:18.516Z,63.34
2018-10-16T02:46:45.110Z,64.33
2018-10-16T02:49:11.752Z,64.74
2018-10-16T02:51:38.311Z,64.76
2018-10-16T02:54:04.839Z,64.08
2018-10-16T02:56:31.332Z,63.99
2018-10-16T02:58:57.942Z,63.33
2018-10-16T03:01:24.491Z,63.09
2018-10-16T03:03:51.161Z,64.65
2018-10-16T03:06:17.924Z,64.63
2018-10-16T03:08:44.402Z,65.06
2018-10-16T03:11:11.954Z,64.97
2018-10-16T03:13:38.494Z,66.10
2018-10-16T03:16:04.974Z,65.98
2018-10-16T03:23:36.234Z,65.13
2018-10-16T03:26:02.999Z,64.70
2018-10-16T03:28:29.694Z,64.59
2018-10-16T03:30:57.579Z,64.47
2018-10-16T03:33:25.151Z,64.79
2018-10-16T03:35:53.813Z,65.60
2018-10-16T03:38:22.270Z,65.33
2018-10-16T03:40:50.548Z,66.15
2018-10-16T03:43:17.710Z,66.79
2018-10-16T03:45:46.292Z,66.90
2018-10-16T03:48:13.775Z,67.28
2018-10-16T03:50:41.178Z,68.03
2018-10-16T03:53:08.403Z,67.54
2018-10-16T03:55:35.821Z,67.59
2018-10-16T03:58:04.804Z,66.48
2018-10-16T04:00:35.590Z,65.59
2018-10-16T04:03:04.504Z,65.76
2018-10-16T04:05:32.215Z,65.55
2018-10-16T04:08:01.509Z,65.27
2018-10-16T04:10:29.298Z,65.54
2018-10-16T04:12:55.848Z,65.03
2018-10-16T04:15:23.795Z,64.51
2018-10-16T04:17:50.749Z,65.85
2018-10-16T04:20:17.600Z,65.68
2018-10-16T04:22:44.834Z,65.20
2018-10-16T04:25:15.054Z,63.93
2018-10-16T04:27:44.172Z,64.63
2018-10-16T04:30:13.811Z,65.40
2018-10-16T04:32:40.355Z,68.54
2018-10-16T04:35:09.358Z,68.39
2018-10-16T04:37:36.149Z,68.96
2018-10-16T04:40:03.257Z,68.95
2018-10-16T04:42:30.469Z,70.18
2018-10-16T04:44:59.000Z,69.75
2018-10-16T04:47:26.611Z,68.18
2018-10-16T04:49:54.045Z,67.37
2018-10-16T04:52:20.624Z,67.12
2018-10-16T04:54:47.803Z,65.01
2018-10-16T04:57:16.090Z,64.94
2018-10-16T04:59:43.300Z,64.12
2018-10-16T05:02:10.754Z,63.87
2018-10-16T05:04:37.785Z,63.75
2018-10-16T05:07:06.653Z,64.55
2018-10-16T05:09:34.634Z,67.05
2018-10-16T05:12:02.216Z,66.64
2018-10-16T05:14:28.819Z,67.26
2018-10-16T05:16:55.893Z,66.88
2018-10-16T05:19:23.351Z,67.33
2018-10-16T05:21:50.838Z,67.54
2018-10-16T05:24:19.056Z,67.85
2018-10-16T05:26:46.785Z,66.85
2018-10-16T05:29:14.825Z,66.81
2018-10-16T05:31:42.161Z,66.19
2018-10-16T05:34:09.501Z,65.70
2018-10-16T05:36:38.139Z,66.20
2018-10-16T05:39:04.971Z,66.09
2018-10-16T05:41:32.819Z,66.29
2018-10-16T05:44:01.032Z,67.10
2018-10-16T05:46:28.162Z,67.63
2018-10-16T05:48:56.058Z,68.70
2018-10-16T05:51:23.364Z,68.51
2018-10-16T05:53:50.863Z,67.30
2018-10-16T05:56:18.085Z,66.37
2018-10-16T05:58:45.580Z,65.50
2018-10-16T06:01:14.130Z,65.31
2018-10-16T06:03:41.410Z,65.31
2018-10-16T06:06:08.954Z,65.45
2018-10-16T06:08:36.341Z,65.01
2018-10-16T06:11:04.175Z,66.39
2018-10-16T06:13:32.021Z,67.01
2018-10-16T06:15:59.780Z,65.67
2018-10-16T06:18:28.142Z,64.82
2018-10-16T06:23:27.508Z,63.61
2018-10-16T06:25:55.890Z,62.40
2018-10-16T06:28:23.655Z,62.07
2018-10-16T06:30:51.186Z,63.55
2018-10-16T06:33:19.739Z,64.28
2018-10-16T06:35:47.062Z,64.96
2018-10-16T06:38:15.434Z,65.56
2018-10-16T06:40:44.113Z,65.68
2018-10-16T06:43:11.431Z,64.46
2018-10-16T06:45:39.230Z,64.93
2018-10-16T06:48:08.725Z,63.90
2018-10-16T06:50:37.745Z,64.63
2018-10-16T06:53:05.014Z,63.82
2018-10-16T06:55:32.351Z,63.15
2018-10-16T06:57:59.863Z,63.14
2018-10-16T07:00:27.689Z,63.67
2018-10-16T07:02:54.953Z,62.57
2018-10-16T07:05:22.246Z,60.86
2018-10-16T07:07:49.664Z,60.34
2018-10-16T07:10:17.715Z,59.20
2018-10-16T07:12:45.799Z,59.48
2018-10-16T07:15:14.695Z,59.00
2018-10-16T07:17:41.420Z,58.43
2018-10-16T07:20:08.016Z,58.62
2018-10-16T07:22:35.392Z,58.56
2018-10-16T07:25:03.224Z,58.06
2018-10-16T07:27:31.656Z,57.97
2018-10-16T07:29:59.944Z,57.46
2018-10-16T07:32:28.094Z,56.98
2018-10-16T07:34:56.347Z,56.74
2018-10-16T07:37:24.654Z,56.36
2018-10-16T07:42:23.383Z,55.65
2018-10-16T07:44:52.010Z,55.78
2018-10-16T07:47:19.840Z,55.22
2018-10-16T07:49:49.912Z,54.73
2018-10-16T07:52:18.412Z,53.93
2018-10-16T07:54:48.305Z,53.82
2018-10-16T07:57:14.936Z,53.47
2018-10-16T07:59:45.595Z,53.93
2018-10-16T08:02:13.321Z,53.81
2018-10-16T08:04:40.561Z,53.33
2018-10-16T08:07:07.062Z,51.75
2018-10-16T08:09:34.038Z,50.54
2018-10-16T08:12:05.245Z,50.50
2018-10-16T08:14:32.921Z,50.75
2018-10-16T08:17:00.771Z,51.00
2018-10-16T08:19:28.128Z,50.31
2018-10-16T08:21:55.000Z,51.31
2018-10-16T08:24:22.863Z,49.83
2018-10-16T08:26:51.582Z,49.60
2018-10-16T08:29:21.564Z,49.64
2018-10-16T08:31:51.076Z,50.18
2018-10-16T08:34:18.373Z,50.00
2018-10-16T08:36:45.436Z,48.47
2018-10-16T08:39:12.424Z,48.18
2018-10-16T08:41:39.766Z,47.53
2018-10-16T08:44:08.350Z,47.62
2018-10-16T08:46:37.045Z,48.22
2018-10-16T08:49:03.831Z,45.60
2018-10-16T08:51:30.314Z,47.38
2018-10-16T08:53:57.047Z,47.20
2018-10-16T08:56:24.535Z,46.58
2018-10-16T08:58:53.136Z,46.36
2018-10-16T09:01:20.924Z,46.06
2018-10-16T09:03:49.542Z,45.16
2018-10-16T09:06:17.370Z,46.61
2018-10-16T09:08:45.864Z,45.45
2018-10-16T09:11:13.196Z,45.84
2018-10-16T09:13:40.305Z,45.35
2018-10-16T09:16:11.140Z,44.10
2018-10-16T09:18:40.361Z,44.49
2018-10-16T09:21:08.155Z,43.79
2018-10-16T09:23:35.366Z,43.80
2018-10-16T09:26:04.811Z,44.18
2018-10-16T09:28:32.570Z,44.17
2018-10-16T09:31:03.682Z,42.70
2018-10-16T09:33:31.856Z,43.24
2018-10-16T09:35:59.749Z,42.20
2018-10-16T09:38:29.495Z,43.82
2018-10-16T09:40:57.556Z,43.49
2018-10-16T09:43:25.085Z,42.34
2018-10-16T09:45:51.831Z,42.56
2018-10-16T09:48:19.090Z,41.17
2018-10-16T09:50:46.510Z,42.43
2018-10-16T09:53:13.925Z,42.69
2018-10-16T09:55:42.801Z,43.42
2018-10-16T09:58:09.628Z,40.89
2018-10-16T10:00:37.803Z,40.68
2018-10-16T10:03:04.279Z,40.90
2018-10-16T10:05:31.087Z,38.72
2018-10-16T10:07:59.667Z,39.12
2018-10-16T10:10:29.044Z,38.39
2018-10-16T10:12:57.747Z,39.75
2018-10-16T10:15:25.787Z,38.80
2018-10-16T10:17:54.103Z,39.46
2018-10-16T10:20:22.090Z,38.33
2018-10-16T10:22:49.804Z,38.45
2018-10-16T10:25:17.855Z,39.30
2018-10-16T10:27:46.349Z,38.13
2018-10-16T10:30:13.621Z,40.09
2018-10-16T10:32:40.195Z,39.18
2018-10-16T10:35:07.927Z,39.89
2018-10-16T10:37:39.706Z,39.94
2018-10-16T10:40:07.885Z,40.94
2018-10-16T10:42:35.504Z,38.93
2018-10-16T10:45:03.842Z,40.33
2018-10-16T10:47:32.538Z,39.08
2018-10-16T10:50:00.900Z,39.58
2018-10-16T10:52:28.588Z,39.85
2018-10-16T10:54:56.673Z,40.52
2018-10-16T10:57:25.882Z,41.92
2018-10-16T10:59:53.186Z,41.08
2018-10-16T11:02:20.802Z,40.86
2018-10-16T11:04:49.239Z,42.02
2018-10-16T11:07:16.781Z,42.93
2018-10-16T11:09:43.260Z,43.80
2018-10-16T11:12:10.509Z,42.99
2018-10-16T11:14:37.844Z,42.09
2018-10-16T11:17:06.034Z,41.77
2018-10-16T11:19:32.595Z,42.66
2018-10-16T11:22:00.112Z,43.45
2018-10-16T11:24:27.770Z,40.13
2018-10-16T11:26:58.222Z,40.95
2018-10-16T11:29:24.769Z,42.27
2018-10-16T11:31:53.137Z,41.61
2018-10-16T11:34:20.666Z,40.52
2018-10-16T11:36:51.169Z,39.81
2018-10-16T11:41:51.028Z,39.15
2018-10-16T11:44:19.624Z,39.51
2018-10-16T11:46:46.386Z,39.14
2018-10-16T11:49:13.875Z,38.91
2018-10-16T11:51:41.170Z,39.23
2018-10-16T11:56:40.324Z,39.24
2018-10-16T11:59:07.261Z,41.18
2018-10-16T12:04:07.479Z,37.73
2018-10-16T12:06:34.873Z,39.32
2018-10-16T12:09:02.709Z,38.33
2018-10-16T12:11:30.572Z,38.81
2018-10-16T12:13:57.808Z,36.88
2018-10-16T12:16:27.256Z,37.83
2018-10-16T12:18:55.809Z,36.81
2018-10-16T12:21:24.205Z,38.88
2018-10-16T12:23:51.298Z,39.42
2018-10-16T12:26:18.476Z,40.33
2018-10-16T12:28:46.919Z,41.46
2018-10-16T12:31:13.591Z,40.99
2018-10-16T12:33:40.356Z,41.03
2018-10-16T12:36:08.923Z,40.55
2018-10-16T12:38:40.625Z,41.45
2018-10-16T12:43:41.625Z,41.95
2018-10-16T12:46:10.149Z,41.51
2018-10-16T12:48:37.415Z,41.49
2018-10-16T12:51:05.843Z,40.58
2018-10-16T12:53:34.284Z,40.28
2018-10-16T12:56:01.507Z,40.75
2018-10-16T12:58:29.472Z,41.49
2018-10-16T13:03:30.462Z,41.46
2018-10-16T13:05:57.816Z,42.05
2018-10-16T13:08:25.967Z,42.99
2018-10-16T13:10:53.764Z,41.53
2018-10-16T13:13:22.319Z,42.58
2018-10-16T13:15:51.092Z,42.34
2018-10-16T13:20:50.667Z,45.51
2018-10-16T13:23:19.479Z,45.64
2018-10-16T13:25:47.893Z,45.45
2018-10-16T13:28:15.191Z,44.00
2018-10-16T13:30:44.204Z,44.89
2018-10-16T13:33:11.293Z,44.14
2018-10-16T13:35:38.099Z,45.03
2018-10-16T13:38:06.539Z,44.03
2018-10-16T13:40:35.325Z,43.79
2018-10-16T13:43:02.895Z,44.22
2018-10-16T13:45:30.661Z,42.75
2018-10-16T13:47:57.531Z,43.93
2018-10-16T13:50:26.791Z,45.09
2018-10-16T13:52:55.985Z,45.06
2018-10-16T13:55:24.857Z,44.49
2018-10-16T13:57:54.087Z,44.06
2018-10-16T14:00:21.010Z,44.58
2018-10-16T14:02:49.681Z,43.71
2018-10-16T14:05:16.621Z,44.90
2018-10-16T14:07:45.692Z,45.33
2018-10-16T14:10:13.174Z,47.13
2018-10-16T14:12:42.067Z,46.47
2018-10-16T14:15:09.910Z,46.51
2018-10-16T14:17:37.925Z,44.83
2018-10-16T14:20:07.898Z,46.19
2018-10-16T14:22:35.454Z,46.91
2018-10-16T14:25:02.925Z,47.40
2018-10-16T14:27:31.243Z,47.58
2018-10-16T14:30:01.605Z,46.46
2018-10-16T14:32:29.249Z,45.16
2018-10-16T14:34:56.796Z,44.38
2018-10-16T14:37:25.658Z,45.44
2018-10-16T14:39:52.854Z,45.84
2018-10-16T14:42:19.872Z,44.90
2018-10-16T14:47:19.524Z,44.69
2018-10-16T14:49:46.858Z,44.98
2018-10-16T14:52:17.541Z,45.08
2018-10-16T14:54:45.482Z,45.20
2018-10-16T14:57:12.290Z,46.23
2018-10-16T14:59:41.407Z,46.26
2018-10-16T15:02:08.208Z,47.16
2018-10-16T15:04:36.712Z,46.89
2018-10-16T15:07:05.179Z,45.95
2018-10-16T15:09:33.731Z,44.69
2018-10-16T15:12:02.130Z,45.20
2018-10-16T15:14:31.359Z,45.54
2018-10-16T15:16:59.581Z,46.04
2018-10-16T15:19:29.258Z,46.25
2018-10-16T15:21:57.549Z,46.96
2018-10-16T15:24:25.243Z,47.11
2018-10-16T15:26:53.670Z,46.58
2018-10-16T15:29:21.843Z,47.84
2018-10-16T15:31:50.584Z,47.07
2018-10-16T15:34:19.654Z,47.54
2018-10-16T15:36:47.482Z,48.43
2018-10-16T15:39:14.568Z,48.09
2018-10-16T15:41:42.307Z,48.59
2018-10-16T15:44:11.580Z,49.11
2018-10-16T15:46:41.426Z,49.60
2018-10-16T15:49:14.011Z,49.66
2018-10-16T15:51:42.388Z,49.27
2018-10-16T15:54:11.625Z,50.06
2018-10-16T15:56:39.536Z,49.96
2018-10-16T16:01:56.003Z,50.34
2018-10-16T16:06:56.786Z,51.40
2018-10-16T16:11:57.232Z,52.01
2018-10-16T16:14:25.131Z,52.33
2018-10-16T16:16:53.607Z,52.68
2018-10-16T16:21:56.256Z,54.47
2018-10-16T16:24:23.948Z,55.01
2018-10-16T16:26:51.983Z,55.09
2018-10-16T16:29:21.284Z,54.92
2018-10-16T16:31:49.069Z,54.79
2018-10-16T16:34:17.502Z,55.71
2018-10-16T16:39:19.032Z,55.55
2018-10-16T16:41:46.776Z,56.12
2018-10-16T16:44:13.624Z,56.19
2018-10-16T16:46:41.275Z,55.96
2018-10-16T16:51:43.108Z,55.58
2018-10-16T16:54:11.051Z,55.88
2018-10-16T16:56:39.049Z,55.69
2018-10-16T16:59:08.110Z,55.91
2018-10-16T17:01:37.172Z,58.08
2018-10-16T17:04:04.703Z,57.65
2018-10-16T17:09:06.938Z,58.25
2018-10-16T17:11:35.075Z,57.87
2018-10-16T17:14:01.925Z,58.25
2018-10-16T17:21:33.725Z,58.25
2018-10-16T17:24:00.526Z,58.05
2018-10-16T17:26:28.202Z,58.39
2018-10-16T17:28:56.837Z,59.88
2018-10-16T17:31:25.309Z,59.66
2018-10-16T17:33:52.469Z,58.86
2018-10-16T17:36:20.640Z,58.54
2018-10-16T17:38:48.471Z,58.42
2018-10-16T17:41:16.671Z,58.94
2018-10-16T17:43:44.541Z,58.07
2018-10-16T17:46:12.817Z,57.72
2018-10-16T17:48:40.262Z,58.62
2018-10-16T17:51:11.499Z,58.75
2018-10-16T17:53:40.042Z,60.06
2018-10-16T17:56:07.444Z,61.13
2018-10-16T17:58:35.593Z,61.61
2018-10-16T18:01:03.561Z,60.61
2018-10-16T18:03:31.472Z,61.33
2018-10-16T18:05:59.180Z,61.60
2018-10-16T18:08:27.034Z,59.91
2018-10-16T18:10:55.052Z,59.02
2018-10-16T18:13:22.986Z,59.18
2018-10-16T18:15:50.989Z,59.60
2018-10-16T18:18:19.598Z,61.70
2018-10-16T18:20:46.851Z,62.83
2018-10-16T18:23:15.701Z,61.94
2018-10-16T18:25:44.594Z,62.30
2018-10-16T18:28:12.485Z,61.45
2018-10-16T18:30:39.616Z,61.38
2018-10-16T18:33:07.861Z,60.65
2018-10-16T18:35:36.967Z,59.60
2018-10-16T18:38:04.339Z,59.70
2018-10-16T18:43:03.598Z,61.00
2018-10-16T18:45:31.328Z,61.24
2018-10-16T18:47:59.326Z,61.66
2018-10-16T18:50:27.664Z,61.17
2018-10-16T18:52:55.637Z,61.96
2018-10-16T18:55:22.337Z,62.78
2018-10-16T18:57:50.091Z,62.65
2018-10-16T19:00:17.647Z,62.52
2018-10-16T19:02:45.299Z,61.34
2018-10-16T19:10:16.951Z,61.02
2018-10-16T19:12:45.504Z,61.66
2018-10-16T19:15:12.517Z,62.12
2018-10-16T19:17:39.902Z,62.81
2018-10-16T19:20:07.113Z,62.20
2018-10-16T19:22:37.592Z,61.68
2018-10-16T19:25:05.685Z,61.93
2018-10-16T19:27:33.218Z,61.54
2018-10-16T19:30:02.014Z,61.56
2018-10-16T19:32:31.433Z,61.69
2018-10-16T19:34:58.546Z,61.70
2018-10-16T19:37:26.691Z,62.60
2018-10-16T19:42:26.476Z,63.02
2018-10-16T19:44:55.089Z,63.74
2018-10-16T19:47:22.570Z,62.35
2018-10-16T19:49:50.065Z,62.60
2018-10-16T19:52:18.136Z,63.98
2018-10-16T19:54:45.880Z,64.05
2018-10-16T19:57:13.441Z,62.95
2018-10-16T19:59:40.238Z,62.33
2018-10-16T20:02:08.864Z,62.93
2018-10-16T20:04:35.761Z,63.44
2018-10-16T20:07:04.444Z,63.65
2018-10-16T20:09:31.944Z,63.76
2018-10-16T20:12:00.284Z,63.02
2018-10-16T20:14:28.424Z,62.98
2018-10-16T20:16:56.018Z,62.55
2018-10-16T20:19:23.267Z,63.70
2018-10-16T20:21:51.656Z,65.35
2018-10-16T20:24:20.468Z,65.21
2018-10-16T20:26:50.673Z,65.32
2018-10-16T20:29:18.336Z,64.89
2018-10-16T20:31:45.064Z,65.34
2018-10-16T20:34:12.312Z,64.21
2018-10-16T20:36:39.832Z,62.77
2018-10-16T20:39:09.575Z,64.14
2018-10-16T20:41:36.106Z,65.03
2018-10-16T20:44:02.998Z,66.28
2018-10-16T20:46:31.479Z,67.39
2018-10-16T20:48:59.489Z,67.47
2018-10-16T20:51:26.914Z,68.00
2018-10-16T20:53:55.068Z,66.99
2018-10-16T20:56:22.474Z,65.50
2018-10-16T20:58:49.901Z,65.02
2018-10-16T21:01:19.062Z,65.80
2018-10-16T21:03:46.955Z,65.29
2018-10-16T21:06:15.179Z,65.67
2018-10-16T21:08:42.084Z,66.16
2018-10-16T21:11:10.680Z,66.95
2018-10-16T21:13:39.012Z,66.07
2018-10-16T21:16:06.297Z,65.77
2018-10-16T21:18:33.810Z,65.55
2018-10-16T21:21:01.489Z,65.53
2018-10-16T21:23:28.439Z,66.04
2018-10-16T21:25:55.551Z,65.52
2018-10-16T21:28:23.321Z,64.52
2018-10-16T21:30:51.718Z,63.62
2018-10-16T21:33:19.806Z,63.98
2018-10-16T21:35:46.666Z,64.75
2018-10-16T21:38:14.111Z,65.90
2018-10-16T21:40:40.963Z,66.52
2018-10-16T21:43:07.790Z,67.44
2018-10-16T21:45:34.416Z,65.82
2018-10-16T21:48:01.952Z,65.87
2018-10-16T21:50:28.714Z,66.70
2018-10-16T21:52:56.050Z,66.30
2018-10-16T21:55:23.540Z,67.88
2018-10-16T21:57:52.581Z,67.14
2018-10-16T22:00:21.188Z,66.16
2018-10-16T22:02:48.313Z,66.55
2018-10-16T22:05:16.787Z,67.00
2018-10-16T22:07:45.427Z,66.63
2018-10-16T22:10:13.937Z,65.97
2018-10-16T22:12:41.874Z,65.77
2018-10-16T22:15:09.938Z,65.13
2018-10-16T22:17:37.920Z,65.36
2018-10-16T22:20:05.504Z,66.07
2018-10-16T22:22:35.659Z,65.70
2018-10-16T22:25:04.189Z,65.06
2018-10-16T22:27:31.784Z,65.00
2018-10-16T22:30:00.236Z,66.48
2018-10-16T22:35:00.191Z,66.26
2018-10-16T22:37:27.562Z,66.29
2018-10-16T22:39:55.616Z,64.85
2018-10-16T22:42:22.840Z,65.56
2018-10-16T22:44:49.719Z,66.07
2018-10-16T22:47:17.463Z,64.90
2018-10-16T22:49:46.220Z,64.88
2018-10-16T22:52:15.556Z,65.21
2018-10-16T22:54:43.447Z,66.47
2018-10-16T22:57:11.821Z,65.17
2018-10-16T22:59:39.272Z,66.25
2018-10-16T23:02:06.011Z,66.72
2018-10-16T23:04:32.901Z,66.83
2018-10-16T23:07:00.033Z,66.34
2018-10-16T23:09:26.999Z,65.68
2018-10-16T23:11:54.978Z,66.25
2018-10-16T23:14:21.819Z,65.65
2018-10-16T23:16:49.602Z,64.75
2018-10-16T23:19:17.060Z,64.50
2018-10-16T23:21:46.320Z,65.25
2018-10-16T23:24:13.014Z,64.92
2018-10-16T23:26:40.710Z,65.17
2018-10-16T23:29:09.503Z,64.92
2018-10-16T23:31:37.989Z,65.56
2018-10-16T23:34:04.719Z,65.39
2018-10-16T23:36:32.986Z,64.83
2018-10-16T23:39:00.490Z,65.31
2018-10-16T23:41:27.646Z,65.04
2018-10-16T23:43:56.308Z,64.57
2018-10-16T23:46:24.625Z,64.51
2018-10-16T23:48:53.394Z,64.92
2018-10-16T23:53:53.608Z,64.53
2018-10-16T23:56:21.119Z,65.19
2018-10-16T23:58:49.863Z,66.58
